Time;durP1;ratioP1;P1;durP2;ratioP2;P2;SDS_P1;SDS_P2;PMS_P1;PMS_P2;Temp;Humidity;BMP_temperature;BMP_pressure;BME280_temperature;BME280_humidity;BME280_pressure;Samples;Min_cycle;Max_cycle;Signal;HPM_P1;HPM_P2
2022/02/22 00:00:34;;;;;;;0.40;0.40;;;;;;;2.76;65.89;92159.06;4982005;28;20112;-87
2022/02/22 00:03:20;;;;;;;2.40;0.50;;;;;;;2.69;66.91;92149.69;4980962;28;20038;-87
2022/02/22 00:05:51;;;;;;;0.40;0.40;;;;;;;2.83;66.93;92175.16;4980179;28;20410;-87
2022/02/22 00:08:31;;;;;;;0.40;0.40;;;;;;;3.00;67.85;92188.75;5013762;28;20458;-88
2022/02/22 00:11:18;;;;;;;0.40;0.40;;;;;;;2.70;68.11;92187.47;4997154;28;20037;-87
2022/02/22 00:14:05;;;;;;;0.73;0.60;;;;;;;2.47;69.25;92173.00;4991365;28;20484;-87
2022/02/22 00:16:35;;;;;;;0.40;0.40;;;;;;;2.40;70.22;92175.00;4962821;28;20046;-87
2022/02/22 00:19:19;;;;;;;0.45;0.40;;;;;;;2.47;70.33;92198.06;4977179;28;20559;-87
2022/02/22 00:22:38;;;;;;;0.45;0.45;;;;;;;2.61;70.86;92248.38;4967430;28;20038;-87
2022/02/22 00:25:20;;;;;;;1.20;0.45;;;;;;;2.17;70.40;92204.47;4996363;28;20049;-86
2022/02/22 00:27:56;;;;;;;1.20;0.65;;;;;;;2.41;70.84;92248.94;4996350;28;20065;-87
2022/02/22 00:30:42;;;;;;;;;;;;;;;;;;;;;
2022/02/22 00:33:18;;;;;;;0.40;0.40;;;;;;;2.00;67.81;92189.03;4997476;28;20045;-87
2022/02/22 00:36:17;;;;;;;0.40;0.40;;;;;;;2.12;67.46;92226.88;5000852;28;20038;-86
2022/02/22 00:38:54;;;;;;;0.38;0.38;;;;;;;1.74;68.40;92180.22;4991409;28;20129;-86
2022/02/22 00:41:25;;;;;;;0.98;0.50;;;;;;;1.93;69.10;92223.81;4961018;28;20046;-86
2022/02/22 00:44:13;;;;;;;;;;;;;;;;;;;;;
2022/02/22 00:46:54;;;;;;;0.35;0.35;;;;;;;1.93;68.73;92275.44;4976156;28;20141;-86
2022/02/22 00:49:25;;;;;;;0.60;0.50;;;;;;;1.64;68.61;92247.16;4977115;28;20042;-86
2022/02/22 00:52:05;;;;;;;;;;;;;;;;;;;;;
2022/02/22 00:54:46;;;;;;;;;;;;;;;;;;;;;
2022/02/22 00:57:25;;;;;;;0.40;0.40;;;;;;;1.58;68.05;92253.28;4995258;28;20029;-86
2022/02/22 01:00:08;;;;;;;;;;;;;;;;;;;;;
2022/02/22 01:02:44;;;;;;;0.40;0.40;;;;;;;1.44;68.35;92243.31;4980004;28;20092;-87
2022/02/22 01:08:24;;;;;;;0.40;0.40;;;;;;;1.09;66.69;92193.78;4996066;28;20287;-86
2022/02/22 01:10:56;;;;;;;0.95;0.50;;;;;;;1.01;67.91;92207.81;4979706;28;20121;-87
2022/02/22 01:13:32;;;;;;;0.43;0.43;;;;;;;1.19;67.71;92256.59;4995958;28;20038;-87
2022/02/22 01:16:00;;;;;;;0.75;0.55;;;;;;;0.85;67.35;92218.91;4988214;28;20037;-87
2022/02/22 01:18:30;;;;;;;0.47;0.47;;;;;;;1.12;66.71;92270.63;4979690;28;20033;-87
2022/02/22 01:21:09;;;;;;;0.50;0.50;;;;;;;0.80;65.96;92222.19;4995690;28;20045;-87
2022/02/22 01:24:06;;;;;;;0.40;0.40;;;;;;;0.80;66.21;92227.31;4997410;28;20045;-88
2022/02/22 01:29:28;;;;;;;0.50;0.50;;;;;;;1.07;62.58;92232.66;4994712;28;20045;-86
2022/02/22 01:32:06;;;;;;;0.50;0.50;;;;;;;1.22;62.85;92268.22;4993473;28;20136;-87
2022/02/22 01:34:39;;;;;;;0.90;0.60;;;;;;;1.15;63.55;92265.81;4977011;28;20117;-87
2022/02/22 01:37:45;;;;;;;1.20;0.57;;;;;;;1.03;63.09;92254.75;4979375;28;20061;-86
2022/02/22 01:40:15;;;;;;;0.45;0.45;;;;;;;0.91;63.01;92239.38;4975986;28;20034;-88
2022/02/22 01:43:03;;;;;;;0.40;0.40;;;;;;;0.89;62.66;92250.94;4992859;28;20034;-87
2022/02/22 01:45:42;;;;;;;0.40;0.40;;;;;;;0.97;63.93;92264.22;4986630;28;20030;-87
2022/02/22 01:48:20;;;;;;;;;;;;;;;;;;;;;
2022/02/22 01:50:56;;;;;;;0.60;0.60;;;;;;;0.99;64.31;92263.97;5014487;28;20087;-89
2022/02/22 01:53:51;;;;;;;0.60;0.60;;;;;;;0.96;64.08;92267.03;5014815;28;20034;-87
2022/02/22 01:56:33;;;;;;;0.45;0.45;;;;;;;0.96;64.41;92275.53;5013792;28;20033;-88
2022/02/22 01:59:22;;;;;;;0.68;0.55;;;;;;;0.88;64.55;92278.50;5017812;28;20049;-87
2022/02/22 02:01:51;;;;;;;0.40;0.40;;;;;;;0.79;64.23;92272.16;5014837;28;20120;-88
2022/02/22 02:04:30;;;;;;;0.43;0.43;;;;;;;0.87;62.94;92279.50;4999765;28;20394;-87
2022/02/22 02:07:11;;;;;;;0.47;0.47;;;;;;;0.88;61.63;92286.25;4977481;28;20061;-88
2022/02/22 02:09:49;;;;;;;0.68;0.50;;;;;;;1.06;59.63;92297.34;4978069;28;20427;-88
2022/02/22 02:12:35;;;;;;;;;;;;;;;1.53;59.09;92359.78;4996449;28;20083;-87
2022/02/22 02:15:12;;;;;;;0.40;0.40;;;;;;;1.41;57.83;92338.41;5020557;28;19921;-88
2022/02/22 02:17:55;;;;;;;0.40;0.40;;;;;;;1.63;57.25;92372.06;5034040;28;20036;-88
2022/02/22 02:20:39;;;;;;;0.70;0.60;;;;;;;1.17;56.24;92286.97;5008550;28;20041;-88
2022/02/22 02:23:09;;;;;;;0.98;0.50;;;;;;;1.15;55.83;92291.59;4982486;28;20124;-88
2022/02/22 02:26:05;;;;;;;;;;;;;;;;;;;;;
2022/02/22 02:28:46;;;;;;;0.40;0.40;;;;;;;1.54;54.23;92332.19;5024149;28;20034;-89
2022/02/22 02:31:26;;;;;;;1.75;0.50;;;;;;;1.41;55.44;92300.50;5002320;28;20045;-88
2022/02/22 02:33:55;;;;;;;0.65;0.50;;;;;;;1.52;54.34;92305.81;5018086;28;20125;-87
2022/02/22 02:36:34;;;;;;;1.00;0.43;;;;;;;1.86;53.54;92338.34;4978588;28;20030;-89
2022/02/22 02:39:15;;;;;;;0.75;0.60;;;;;;;1.60;54.18;92279.63;4986662;28;20041;-87
2022/02/22 02:41:58;;;;;;;1.75;0.60;;;;;;;2.08;54.34;92369.38;4978661;28;20038;-87
2022/02/22 02:44:31;;;;;;;2.00;0.60;;;;;;;2.12;54.17;92382.63;4963341;28;20100;-88
2022/02/22 02:47:10;;;;;;;;;;;;;;;;;;;;;
2022/02/22 02:49:55;;;;;;;;;;;;;;;;;;;;;
2022/02/22 02:52:26;;;;;;;0.65;0.40;;;;;;;1.67;52.34;92298.31;4997782;28;20411;-87
2022/02/22 02:55:12;;;;;;;0.47;0.47;;;;;;;1.80;52.93;92312.69;4967217;28;20106;-88
2022/02/22 02:58:19;;;;;;;;;;;;;;;;;;;;;
2022/02/22 03:00:55;;;;;;;0.88;0.43;;;;;;;2.10;54.33;92358.81;4997854;28;20049;-88
2022/02/22 03:03:35;;;;;;;0.95;0.47;;;;;;;1.75;54.36;92315.19;5013833;28;20103;-87
2022/02/22 03:06:18;;;;;;;3.40;0.70;;;;;;;1.73;54.67;92320.59;4958526;28;20058;-87
2022/02/22 03:09:17;;;;;;;2.20;0.60;;;;;;;1.73;54.22;92320.59;4959210;28;20126;-87
2022/02/22 03:11:57;;;;;;;1.08;0.50;;;;;;;2.03;52.10;92338.31;4960101;28;20031;-89
2022/02/22 03:14:35;;;;;;;0.40;0.40;;;;;;;1.91;52.94;92318.78;4944363;28;20053;-88
2022/02/22 03:17:23;;;;;;;1.23;0.50;;;;;;;2.24;52.65;92372.97;4974747;28;20042;-88
2022/02/22 03:20:00;;;;;;;0.50;0.50;;;;;;;2.06;52.90;92347.41;4958654;28;20431;-87
2022/02/22 03:23:04;;;;;;;0.47;0.47;;;;;;;2.02;53.58;92351.47;5010946;28;20030;-87
2022/02/22 03:25:41;;;;;;;0.90;0.60;;;;;;;1.82;53.44;92326.94;4997353;28;20100;-87
2022/02/22 03:28:16;;;;;;;0.40;0.40;;;;;;;1.95;53.16;92343.09;4982504;28;20364;-87
2022/02/22 03:31:04;;;;;;;0.40;0.40;;;;;;;1.81;53.90;92317.63;4996918;28;20054;-89
2022/02/22 03:33:55;;;;;;;;;;;;;;;;;;;;;
2022/02/22 03:36:38;;;;;;;0.43;0.43;;;;;;;1.85;54.58;92352.28;4975298;28;20031;-88
2022/02/22 03:39:24;;;;;;;0.80;0.60;;;;;;;1.66;54.43;92338.03;4958429;28;20282;-88
2022/02/22 03:42:05;;;;;;;1.27;0.60;;;;;;;1.61;54.69;92328.41;4979243;28;20424;-87
2022/02/22 03:44:48;;;;;;;0.40;0.40;;;;;;;1.74;54.75;92363.47;4959104;28;20102;-87
2022/02/22 03:47:21;;;;;;;0.60;0.60;;;;;;;1.78;55.71;92377.47;4958517;28;20043;-87
2022/02/22 03:49:56;;;;;;;0.40;0.40;;;;;;;2.03;55.71;92415.78;4977403;28;20480;-87
2022/02/22 03:52:28;;;;;;;0.50;0.50;;;;;;;1.75;55.39;92362.44;4969210;28;20156;-87
2022/02/22 03:55:24;;;;;;;;;;;;;;;;;;;;;
2022/02/22 03:58:10;;;;;;;0.40;0.40;;;;;;;1.89;55.48;92393.88;4983720;28;20563;-87
2022/02/22 04:00:36;;;;;;;0.40;0.40;;;;;;;1.59;55.92;92347.72;4981956;28;20439;-88
2022/02/22 04:03:12;;;;;;;0.80;0.60;;;;;;;1.69;56.09;92362.56;4975945;28;20034;-87
2022/02/22 04:08:41;;;;;;;3.45;1.25;;;;;;;1.93;55.96;92394.19;5002000;28;20589;-88
2022/02/22 04:11:11;;;;;;;1.77;0.52;;;;;;;1.73;55.15;92359.28;4980354;28;20045;-88
2022/02/22 04:13:48;;;;;;;;;;;;;;;;;;;;;
2022/02/22 04:16:19;;;;;;;2.45;0.52;;;;;;;2.25;53.85;92402.16;4974767;28;20121;-88
2022/02/22 04:19:01;;;;;;;0.40;0.40;;;;;;;2.07;53.52;92367.03;4968140;28;20039;-88
2022/02/22 04:21:32;;;;;;;0.50;0.50;;;;;;;2.08;54.21;92371.97;4989766;28;20063;-88
2022/02/22 04:24:15;;;;;;;;;;;;;;;;;;;;;
2022/02/22 04:26:47;;;;;;;0.40;0.40;;;;;;;2.13;54.13;92373.06;4977910;28;20388;-88
2022/02/22 04:29:47;;;;;;;0.40;0.40;;;;;;;2.58;54.25;92447.81;4960603;28;20129;-88
2022/02/22 04:32:17;;;;;;;0.52;0.50;;;;;;;2.00;54.62;92369.78;4974028;28;20052;-87
2022/02/22 04:35:10;;;;;;;0.40;0.40;;;;;;;2.01;55.42;92389.41;4981713;28;20049;-87
2022/02/22 04:38:02;;;;;;;0.40;0.40;;;;;;;1.92;55.41;92392.63;4980838;28;20128;-88
2022/02/22 04:40:42;;;;;;;1.27;0.50;;;;;;;2.42;55.51;92461.56;4981006;28;20038;-89
2022/02/22 04:43:38;;;;;;;0.45;0.40;;;;;;;2.21;55.87;92438.00;4958491;28;20485;-88
2022/02/22 04:46:19;;;;;;;;;;;;;;;;;;;;;
2022/02/22 04:49:09;;;;;;;0.47;0.47;;;;;;;2.28;53.84;92417.97;4957249;28;20496;-88
2022/02/22 04:51:57;;;;;;;0.38;0.38;;;;;;;2.04;54.41;92388.16;4973118;28;20039;-87
2022/02/22 04:54:45;;;;;;;0.75;0.65;;;;;;;1.96;54.58;92394.50;4940716;28;20170;-87
2022/02/22 04:57:40;;;;;;;0.55;0.55;;;;;;;1.84;55.58;92391.22;5000021;28;20176;-88
2022/02/22 05:00:14;;;;;;;0.50;0.50;;;;;;;1.70;56.11;92383.00;4995356;28;20042;-90
2022/02/22 05:02:51;;;;;;;;;;;;;;;;;;;;;
2022/02/22 05:05:30;;;;;;;0.50;0.50;;;;;;;1.83;57.35;92421.41;5017446;28;20789;-88
2022/02/22 05:08:07;;;;;;;0.50;0.50;;;;;;;1.55;56.96;92388.69;5001135;28;20109;-87
2022/02/22 05:11:27;;;;;;;0.32;0.32;;;;;;;1.58;56.57;92398.56;4980522;28;20056;-88
2022/02/22 05:14:32;;;;;;;0.55;0.50;;;;;;;1.66;56.57;92399.97;4980687;28;20097;-88
2022/02/22 05:17:10;;;;;;;0.50;0.47;;;;;;;1.57;57.62;92407.31;4979095;28;20100;-88
2022/02/22 05:19:50;;;;;;;0.40;0.40;;;;;;;1.65;55.80;92411.31;5032066;28;20033;-88
2022/02/22 05:22:16;;;;;;;0.63;0.50;;;;;;;2.11;57.15;92468.84;4981455;28;20128;-87
2022/02/22 05:25:14;;;;;;;;;;;;;;;;;;;;;
2022/02/22 05:27:57;;;;;;;0.40;0.40;;;;;;;1.96;53.72;92427.28;4981047;28;20037;-87
2022/02/22 05:30:33;;;;;;;0.40;0.40;;;;;;;2.49;52.41;92459.59;4994948;28;20037;-87
2022/02/22 05:33:20;;;;;;;;;;;;;;;;;;;;;
2022/02/22 05:36:00;;;;;;;0.30;0.30;;;;;;;2.30;51.58;92404.81;5012639;28;20038;-88
2022/02/22 05:38:31;;;;;;;0.47;0.47;;;;;;;2.48;50.39;92404.56;4980003;28;20487;-88
2022/02/22 05:41:17;;;;;;;;;;;;;;;;;;;;;
2022/02/22 05:44:09;;;;;;;0.47;0.47;;;;;;;2.86;50.89;92487.47;4990272;28;20037;-87
2022/02/22 05:46:39;;;;;;;0.43;0.43;;;;;;;2.97;50.97;92504.69;4992043;28;20034;-88
2022/02/22 05:49:25;;;;;;;;;;;;;;;;;;;;;
2022/02/22 05:52:13;;;;;;;0.40;0.40;;;;;;;2.89;49.61;92448.25;4991430;28;20031;-87
2022/02/22 05:54:56;;;;;;;;;;;;;;;3.38;49.66;92515.56;5006879;28;20053;-87
2022/02/22 05:57:43;;;;;;;0.40;0.40;;;;;;;2.70;49.98;92455.47;5018004;28;19919;-88
2022/02/22 06:00:18;;;;;;;0.40;0.40;;;;;;;3.03;49.38;92505.56;5005969;28;20042;-88
2022/02/22 06:03:09;;;;;;;0.40;0.40;;;;;;;2.90;49.70;92496.34;4996894;28;20043;-86
2022/02/22 06:06:11;;;;;;;;;;;;;;;;;;;;;
2022/02/22 06:09:05;;;;;;;0.30;0.30;;;;;;;2.89;48.95;92485.22;4998303;28;20479;-87
2022/02/22 06:11:40;;;;;;;0.77;0.50;;;;;;;2.80;48.68;92454.84;4984177;28;20033;-87
2022/02/22 06:14:11;;;;;;;0.65;0.57;;;;;;;3.02;48.27;92450.47;4992856;28;20124;-87
2022/02/22 06:16:48;;;;;;;0.40;0.40;;;;;;;2.96;48.18;92456.59;5010173;28;20033;-86
2022/02/22 06:19:14;;;;;;;0.40;0.40;;;;;;;3.04;48.57;92466.53;4974442;28;20506;-86
2022/02/22 06:21:43;;;;;;;0.30;0.30;;;;;;;3.06;48.28;92505.88;4993709;28;20033;-86
2022/02/22 06:24:11;;;;;;;0.40;0.40;;;;;;;3.13;48.41;92505.69;5010175;28;20383;-85
2022/02/22 06:26:36;;;;;;;0.47;0.47;;;;;;;3.47;47.01;92547.00;5005676;28;20049;-85
2022/02/22 06:29:06;;;;;;;3.72;0.60;;;;;;;3.77;48.51;92561.31;4992569;28;20352;-85
2022/02/22 06:31:32;;;;;;;0.50;0.50;;;;;;;5.61;45.18;92560.94;4986211;28;20039;-85
2022/02/22 06:33:57;;;;;;;0.50;0.50;;;;;;;7.63;41.12;92569.44;4980624;28;20089;-87
2022/02/22 06:36:24;;;;;;;0.55;0.55;;;;;;;9.09;36.00;92556.09;4980348;28;20038;-86
2022/02/22 06:38:50;;;;;;;0.50;0.50;;;;;;;10.44;33.57;92560.38;4974860;28;20400;-87
2022/02/22 06:41:16;;;;;;;0.70;0.70;;;;;;;11.60;31.99;92556.19;4951587;28;20480;-86
2022/02/22 06:43:41;;;;;;;0.60;0.60;;;;;;;12.70;30.63;92555.31;4967007;28;20101;-85
2022/02/22 06:46:07;;;;;;;0.50;0.50;;;;;;;12.80;29.78;92548.28;4974607;28;20046;-86
2022/02/22 06:48:33;;;;;;;0.82;0.70;;;;;;;12.83;27.83;92556.31;5007277;28;20051;-86
2022/02/22 06:50:58;;;;;;;0.50;0.50;;;;;;;13.82;26.72;92563.41;4958867;28;20065;-86
2022/02/22 06:53:24;;;;;;;0.50;0.50;;;;;;;14.41;25.30;92549.94;4961962;28;20038;-86
2022/02/22 06:55:50;;;;;;;1.10;0.60;;;;;;;15.36;23.68;92567.66;4998573;28;20065;-85
2022/02/22 06:58:15;;;;;;;1.60;0.60;;;;;;;15.64;26.61;92562.00;4983167;28;20034;-87
2022/02/22 07:00:45;;;;;;;0.50;0.50;;;;;;;16.79;22.96;92552.13;5017329;28;20033;-86
2022/02/22 07:03:11;;;;;;;1.10;0.60;;;;;;;17.56;20.56;92572.97;4985796;28;20124;-86
2022/02/22 07:05:37;;;;;;;1.15;0.50;;;;;;;18.66;21.12;92568.84;4982319;28;20044;-87
2022/02/22 07:08:03;;;;;;;0.60;0.60;;;;;;;19.78;20.05;92576.16;4976915;28;20046;-86
2022/02/22 07:10:29;;;;;;;0.50;0.50;;;;;;;19.44;19.81;92569.53;4961705;28;20565;-86
2022/02/22 07:12:56;;;;;;;0.77;0.57;;;;;;;20.18;18.82;92581.31;4978909;28;20035;-88
2022/02/22 07:15:21;;;;;;;0.40;0.40;;;;;;;20.82;17.78;92567.94;5005769;28;20471;-87
2022/02/22 07:17:52;;;;;;;1.38;0.60;;;;;;;20.06;20.21;92572.66;4981541;28;20045;-87
2022/02/22 07:20:20;;;;;;;0.75;0.57;;;;;;;20.45;19.82;92578.91;4997392;28;20045;-86
2022/02/22 07:22:46;;;;;;;0.40;0.40;;;;;;;19.33;18.25;92585.94;4980605;28;20037;-86
2022/02/22 07:25:14;;;;;;;1.67;0.63;;;;;;;19.78;22.14;92588.66;5015134;28;20068;-86
2022/02/22 07:27:41;;;;;;;0.93;0.60;;;;;;;20.40;21.57;92581.81;5010976;28;20095;-86
2022/02/22 07:30:08;;;;;;;1.00;0.70;;;;;;;22.17;20.38;92587.66;4983274;28;20037;-88
2022/02/22 07:32:34;;;;;;;1.45;0.52;;;;;;;22.62;17.47;92583.44;4997096;28;20037;-87
2022/02/22 07:34:59;;;;;;;1.67;0.52;;;;;;;22.73;16.91;92580.16;4965188;28;20490;-86
2022/02/22 07:37:25;;;;;;;0.60;0.57;;;;;;;22.52;18.39;92597.38;4948638;28;20038;-86
2022/02/22 07:39:51;;;;;;;1.00;0.68;;;;;;;21.56;19.49;92597.22;4995947;28;20046;-86
2022/02/22 07:42:16;;;;;;;1.58;0.90;;;;;;;19.58;20.04;92587.72;4961730;28;20046;-86
2022/02/22 07:44:42;;;;;;;0.47;0.47;;;;;;;22.20;18.99;92612.81;4961794;28;20046;-86
2022/02/22 07:47:08;;;;;;;0.65;0.50;;;;;;;22.96;18.22;92599.53;4961400;28;20499;-86
2022/02/22 07:49:33;;;;;;;3.72;0.75;;;;;;;23.49;16.78;92612.84;4990847;28;20479;-87
2022/02/22 07:51:59;;;;;;;0.35;0.35;;;;;;;22.23;18.58;92612.94;4997035;28;20038;-87
2022/02/22 07:54:24;;;;;;;1.95;0.40;;;;;;;20.86;19.07;92613.28;4996737;28;20030;-87
2022/02/22 07:56:50;;;;;;;0.60;0.57;;;;;;;18.81;21.93;92628.41;4964822;28;20446;-87
2022/02/22 07:59:16;;;;;;;0.20;0.20;;;;;;;17.37;23.01;92618.41;4990817;28;20117;-87
2022/02/22 08:01:41;;;;;;;1.10;0.40;;;;;;;16.87;22.97;92610.56;4977248;28;20038;-86
2022/02/22 08:04:07;;;;;;;0.30;0.30;;;;;;;17.22;23.31;92640.16;4961477;28;20137;-86
2022/02/22 08:06:33;;;;;;;0.52;0.30;;;;;;;15.66;24.94;92633.72;4986028;28;20559;-86
2022/02/22 08:08:58;;;;;;;1.00;0.50;;;;;;;15.63;25.38;92635.13;4980252;28;20042;-86
2022/02/22 08:11:26;;;;;;;0.40;0.40;;;;;;;14.54;26.45;92641.22;4980866;28;20049;-90
2022/02/22 08:13:53;;;;;;;1.13;0.43;;;;;;;14.70;25.98;92642.41;4996799;28;20096;-87
2022/02/22 08:16:18;;;;;;;1.05;0.50;;;;;;;14.72;26.28;92642.84;4996777;28;20038;-86
2022/02/22 08:18:44;;;;;;;0.32;0.32;;;;;;;14.53;26.31;92648.34;4996435;28;20333;-86
2022/02/22 08:21:10;;;;;;;0.57;0.40;;;;;;;14.75;25.34;92650.16;5002419;28;20033;-86
2022/02/22 08:23:35;;;;;;;0.50;0.40;;;;;;;15.04;24.46;92629.56;4999688;28;20037;-86
2022/02/22 08:26:04;;;;;;;0.30;0.30;;;;;;;14.64;25.78;92643.63;4999971;28;20030;-87
2022/02/22 08:28:30;;;;;;;0.32;0.32;;;;;;;14.94;25.38;92641.19;5016233;28;20056;-88
2022/02/22 08:30:56;;;;;;;0.40;0.30;;;;;;;15.04;24.54;92625.06;5000031;28;20502;-86
2022/02/22 08:33:21;;;;;;;0.40;0.40;;;;;;;14.88;24.19;92594.97;4984171;28;20049;-86
2022/02/22 08:35:47;;;;;;;0.52;0.47;;;;;;;15.09;24.47;92608.31;4976937;28;20038;-86
2022/02/22 08:38:13;;;;;;;0.20;0.20;;;;;;;14.84;23.96;92573.75;4961049;28;20046;-87
2022/02/22 08:40:39;;;;;;;0.30;0.30;;;;;;;14.55;24.95;92572.47;4960549;28;20058;-86
2022/02/22 08:43:04;;;;;;;0.22;0.22;;;;;;;14.11;24.47;92531.31;4977299;28;20049;-86
2022/02/22 08:45:30;;;;;;;0.43;0.30;;;;;;;14.62;25.00;92574.66;4960591;28;20043;-86
2022/02/22 08:47:56;;;;;;;0.40;0.32;;;;;;;14.45;24.50;92558.78;4977321;28;20031;-87
2022/02/22 08:50:22;;;;;;;0.30;0.30;;;;;;;14.29;24.50;92548.69;4976721;28;20046;-86
2022/02/22 08:52:50;;;;;;;1.20;0.60;;;;;;;14.43;24.25;92510.91;5002849;28;20482;-86
2022/02/22 08:55:19;;;;;;;0.35;0.35;;;;;;;14.39;23.71;92481.81;4999495;28;20091;-87
2022/02/22 08:57:56;;;;;;;0.77;0.43;;;;;;;14.15;24.39;92505.94;5033138;28;20486;-87
2022/02/22 09:00:26;;;;;;;0.30;0.30;;;;;;;13.18;24.38;92464.56;5016290;28;20107;-87
2022/02/22 09:03:04;;;;;;;0.35;0.35;;;;;;;13.20;24.96;92443.25;5033556;28;20037;-86
2022/02/22 09:05:38;;;;;;;0.32;0.32;;;;;;;12.96;24.68;92462.00;4960295;28;20038;-87
2022/02/22 09:08:17;;;;;;;1.02;0.55;;;;;;;13.02;25.08;92466.81;4993024;28;20034;-86
2022/02/22 09:10:50;;;;;;;1.45;0.40;;;;;;;12.88;24.18;92460.88;4960667;28;20046;-86
2022/02/22 09:13:18;;;;;;;0.68;0.50;;;;;;;13.21;23.37;92479.72;4976993;28;20039;-86
2022/02/22 09:15:49;;;;;;;0.45;0.40;;;;;;;12.22;22.95;92418.56;5013416;28;20215;-88
2022/02/22 09:18:17;;;;;;;0.40;0.40;;;;;;;12.08;24.04;92422.00;5033083;28;20080;-87
2022/02/22 09:20:45;;;;;;;0.65;0.50;;;;;;;12.82;24.17;92451.56;5015388;28;20068;-86
2022/02/22 09:23:14;;;;;;;0.35;0.30;;;;;;;13.20;23.64;92467.69;4999536;28;20025;-86
2022/02/22 09:25:49;;;;;;;0.68;0.45;;;;;;;12.30;24.32;92488.72;5015655;28;20041;-86
2022/02/22 09:28:15;;;;;;;0.50;0.50;;;;;;;11.74;22.96;92417.19;5015442;28;20399;-86
2022/02/22 09:30:43;;;;;;;0.93;0.60;;;;;;;12.21;23.90;92495.75;4999502;28;20040;-87
2022/02/22 09:33:12;;;;;;;0.30;0.30;;;;;;;12.44;24.32;92499.16;4999004;28;20418;-87
2022/02/22 09:35:40;;;;;;;0.63;0.40;;;;;;;12.35;24.30;92487.84;5003405;28;20060;-87
2022/02/22 09:38:06;;;;;;;1.00;0.57;;;;;;;12.76;24.23;92502.66;4996204;28;20042;-86
2022/02/22 09:40:32;;;;;;;1.92;0.57;;;;;;;11.67;23.41;92450.91;5012013;28;20033;-87
2022/02/22 09:43:01;;;;;;;0.40;0.40;;;;;;;11.29;24.74;92473.94;4995629;28;20053;-87
2022/02/22 09:45:28;;;;;;;4.38;0.45;;;;;;;11.31;25.20;92517.13;4981782;28;20068;-86
2022/02/22 09:48:01;;;;;;;0.50;0.50;;;;;;;11.79;24.92;92493.13;4997615;28;20152;-86
2022/02/22 09:50:29;;;;;;;0.73;0.60;;;;;;;11.43;22.79;92478.09;5031780;28;20038;-87
2022/02/22 09:53:01;;;;;;;0.50;0.50;;;;;;;12.02;23.29;92491.41;4998272;28;20060;-86
2022/02/22 09:55:32;;;;;;;0.68;0.47;;;;;;;12.38;23.10;92526.59;5030758;28;20084;-86
2022/02/22 09:58:00;;;;;;;0.40;0.40;;;;;;;12.98;22.59;92544.69;5010837;28;20061;-88
2022/02/22 10:00:33;;;;;;;0.50;0.50;;;;;;;11.76;23.10;92509.47;5013506;28;20112;-86
2022/02/22 10:02:59;;;;;;;0.63;0.40;;;;;;;11.84;22.61;92492.25;4997275;28;20049;-88
2022/02/22 10:05:28;;;;;;;0.75;0.50;;;;;;;12.47;22.28;92525.63;4997116;28;20039;-87
2022/02/22 10:08:03;;;;;;;0.40;0.40;;;;;;;12.78;21.04;92513.63;4996421;28;20086;-87
2022/02/22 10:10:39;;;;;;;0.43;0.40;;;;;;;13.24;21.47;92578.22;5014063;28;20128;-88
2022/02/22 10:13:07;;;;;;;0.43;0.43;;;;;;;13.56;21.57;92582.50;5015171;28;20038;-87
2022/02/22 10:15:44;;;;;;;0.55;0.43;;;;;;;13.53;20.66;92491.03;4999814;28;20029;-86
2022/02/22 10:18:11;;;;;;;0.35;0.35;;;;;;;14.36;20.52;92571.94;5033567;28;20048;-87
2022/02/22 10:20:40;;;;;;;0.77;0.40;;;;;;;14.54;19.30;92570.09;5015136;28;20029;-88
2022/02/22 10:23:06;;;;;;;1.23;0.50;;;;;;;14.65;20.40;92552.94;4998877;28;20038;-86
2022/02/22 10:25:36;;;;;;;0.30;0.30;;;;;;;14.22;18.02;92506.25;5014922;28;20045;-87
2022/02/22 10:28:04;;;;;;;0.35;0.35;;;;;;;14.40;18.93;92508.91;5008910;28;20080;-86
2022/02/22 10:30:43;;;;;;;0.43;0.43;;;;;;;14.13;18.84;92534.41;4997973;28;20037;-86
2022/02/22 10:33:20;;;;;;;0.40;0.40;;;;;;;14.23;20.71;92513.06;4999829;28;20038;-86
2022/02/22 10:35:51;;;;;;;0.40;0.40;;;;;;;14.82;19.36;92570.63;4983852;28;20112;-87
2022/02/22 10:38:31;;;;;;;0.57;0.40;;;;;;;15.42;18.70;92574.28;5000980;28;20581;-87
2022/02/22 10:41:15;;;;;;;0.50;0.50;;;;;;;15.73;18.05;92571.47;5018882;28;20041;-87
2022/02/22 10:43:51;;;;;;;1.23;0.40;;;;;;;14.94;20.14;92573.41;5019062;28;20034;-87
2022/02/22 10:46:26;;;;;;;0.30;0.30;;;;;;;15.12;19.14;92521.47;5002860;28;20053;-86
2022/02/22 10:49:23;;;;;;;0.65;0.47;;;;;;;15.95;19.13;92575.75;5018090;28;20032;-86
2022/02/22 10:51:51;;;;;;;0.38;0.38;;;;;;;16.10;18.58;92541.97;5001311;28;20391;-87
2022/02/22 10:54:23;;;;;;;0.68;0.38;;;;;;;16.01;17.91;92556.00;5002410;28;20634;-87
2022/02/22 10:56:51;;;;;;;0.35;0.35;;;;;;;16.09;18.97;92524.59;5002342;28;20037;-87
2022/02/22 10:59:23;;;;;;;0.30;0.30;;;;;;;15.94;18.50;92550.44;5001920;28;20033;-86
2022/02/22 11:01:59;;;;;;;0.43;0.43;;;;;;;15.58;17.04;92517.31;5004015;28;20037;-87
2022/02/22 11:04:28;;;;;;;1.00;0.45;;;;;;;15.60;17.98;92567.91;5016810;28;20042;-87
2022/02/22 11:07:04;;;;;;;2.47;0.43;;;;;;;14.70;18.87;92497.50;4982823;28;20218;-87
2022/02/22 11:09:40;;;;;;;0.45;0.43;;;;;;;15.53;19.79;92561.56;5016489;28;20034;-87
2022/02/22 11:12:21;;;;;;;0.95;0.57;;;;;;;16.23;17.61;92557.59;5029911;28;20045;-88
2022/02/22 11:14:59;;;;;;;;;;;;;;;;;;;;;
2022/02/22 11:17:47;;;;;;;0.30;0.30;;;;;;;17.04;16.64;92576.06;5018236;28;20419;-87
2022/02/22 11:20:35;;;;;;;0.80;0.55;;;;;;;14.82;20.04;92527.72;5018302;28;20034;-87
2022/02/22 11:23:09;;;;;;;1.52;0.60;;;;;;;14.53;18.75;92531.69;5017842;28;20041;-87
2022/02/22 11:25:37;;;;;;;0.70;0.50;;;;;;;14.87;18.90;92525.69;4982824;28;20042;-87
2022/02/22 11:28:13;;;;;;;0.40;0.40;;;;;;;15.17;18.59;92523.16;4998899;28;20037;-87
2022/02/22 11:30:42;;;;;;;0.63;0.45;;;;;;;15.68;17.70;92525.97;4982882;28;20389;-86
2022/02/22 11:33:19;;;;;;;2.33;0.70;;;;;;;15.91;18.04;92522.03;5005669;28;20034;-87
2022/02/22 11:35:52;;;;;;;0.63;0.60;;;;;;;16.06;17.54;92568.25;4962649;28;20046;-87
2022/02/22 11:38:21;;;;;;;0.40;0.40;;;;;;;16.06;17.54;92531.28;4995076;28;20096;-87
2022/02/22 11:40:56;;;;;;;0.30;0.30;;;;;;;15.68;18.57;92525.97;4979027;28;20030;-88
2022/02/22 11:43:36;;;;;;;0.90;0.40;;;;;;;16.20;16.40;92549.53;4999140;28;20095;-88
2022/02/22 11:46:07;;;;;;;0.88;0.50;;;;;;;14.10;17.69;92527.91;5018213;28;20096;-88
2022/02/22 11:48:47;;;;;;;3.47;0.60;;;;;;;13.33;19.62;92518.66;5002782;28;20044;-87
2022/02/22 11:51:16;;;;;;;1.17;0.70;;;;;;;13.95;19.50;92542.25;5035842;28;20030;-87
2022/02/22 11:53:52;;;;;;;2.20;0.60;;;;;;;14.43;19.44;92548.56;5001719;28;20102;-87
2022/02/22 11:56:26;;;;;;;0.43;0.32;;;;;;;15.34;19.47;92554.00;4985919;28;20041;-87
2022/02/22 11:58:54;;;;;;;1.55;0.60;;;;;;;15.50;17.54;92520.75;5035437;28;20038;-87
2022/02/22 12:01:32;;;;;;;;;;;;;;;;;;;;;
2022/02/22 12:04:27;;;;;;;1.45;0.70;;;;;;;14.99;17.11;92557.47;5035303;28;20033;-87
2022/02/22 12:06:57;;;;;;;1.38;0.55;;;;;;;15.07;19.41;92550.63;5018012;28;20049;-87
2022/02/22 12:09:53;;;;;;;0.20;0.20;;;;;;;15.94;17.57;92584.75;5018026;28;20041;-87
2022/02/22 12:12:25;;;;;;;2.97;0.63;;;;;;;15.38;16.67;92544.38;4993832;28;20057;-87
2022/02/22 12:14:53;;;;;;;2.03;0.70;;;;;;;14.41;18.35;92552.56;5011407;28;20040;-87
2022/02/22 12:17:35;;;;;;;1.05;0.60;;;;;;;14.05;17.60;92511.47;4998802;28;20060;-87
2022/02/22 12:20:08;;;;;;;1.30;0.57;;;;;;;14.64;17.97;92543.50;4997609;28;20038;-87
2022/02/22 12:22:46;;;;;;;0.40;0.40;;;;;;;14.55;16.91;92509.25;4982148;28;20042;-87
2022/02/22 12:25:12;;;;;;;1.85;0.60;;;;;;;15.34;16.91;92532.91;4985252;28;20091;-87
2022/02/22 12:27:45;;;;;;;0.75;0.50;;;;;;;13.99;17.35;92552.19;4997217;28;20041;-87
2022/02/22 12:30:13;;;;;;;0.70;0.50;;;;;;;14.29;17.48;92506.56;4998025;28;20037;-87
2022/02/22 12:32:57;;;;;;;0.52;0.50;;;;;;;14.46;17.65;92526.88;4981175;28;20077;-87
2022/02/22 12:35:52;;;;;;;0.85;0.50;;;;;;;14.99;15.64;92546.13;4997781;28;20042;-88
2022/02/22 12:38:26;;;;;;;0.50;0.45;;;;;;;14.55;16.36;92508.50;4985809;28;20402;-87
2022/02/22 12:40:58;;;;;;;1.58;0.80;;;;;;;14.03;16.90;92508.41;4997515;28;20038;-87
2022/02/22 12:43:27;;;;;;;0.45;0.32;;;;;;;14.78;17.17;92530.19;4997519;28;20048;-87
2022/02/22 12:45:57;;;;;;;0.80;0.40;;;;;;;15.02;16.62;92505.97;5014958;28;20030;-87
2022/02/22 12:48:23;;;;;;;3.92;0.80;;;;;;;14.84;15.45;92499.16;4980779;28;20069;-87
2022/02/22 12:51:01;;;;;;;0.43;0.43;;;;;;;15.55;17.44;92533.00;4998401;28;20092;-87
2022/02/22 12:53:49;;;;;;;;;;;;;;;;;;;;;
2022/02/22 12:56:43;;;;;;;1.80;0.70;;;;;;;15.09;15.58;92516.81;4998856;28;20038;-88
2022/02/22 12:59:33;;;;;;;0.50;0.50;;;;;;;14.62;15.83;92552.81;4997895;28;20475;-87